createdAt,value
2023-04-06T00:02:24.857Z,74.62
2023-04-06T00:07:31.756Z,74.99
2023-04-06T00:12:39.483Z,74.88
2023-04-06T00:17:45.680Z,75.26
2023-04-06T00:22:52.222Z,75.51
2023-04-06T00:28:00.141Z,76.17
2023-04-06T00:33:06.639Z,75.44
2023-04-06T00:38:14.582Z,75.98
2023-04-06T00:43:22.546Z,75.70
2023-04-06T00:48:29.118Z,76.30
2023-04-06T00:53:35.452Z,76.39
2023-04-06T00:58:43.945Z,76.42
2023-04-06T01:03:51.695Z,77.85
2023-04-06T01:08:59.963Z,77.50
2023-04-06T01:14:09.651Z,77.62
2023-04-06T01:19:28.842Z,77.50
2023-04-06T01:24:37.340Z,79.13
2023-04-06T01:30:08.672Z,78.13
2023-04-06T01:35:31.764Z,79.10
2023-04-06T01:40:51.051Z,78.23
2023-04-06T01:46:00.153Z,78.03
2023-04-06T01:51:11.964Z,77.96
2023-04-06T01:56:27.901Z,77.86
2023-04-06T02:01:42.198Z,78.17
2023-04-06T02:06:48.779Z,77.65
2023-04-06T02:12:03.157Z,77.49
2023-04-06T02:17:12.552Z,76.07
2023-04-06T02:22:19.486Z,74.10
2023-04-06T02:27:27.323Z,73.07
2023-04-06T02:32:33.578Z,71.81
2023-04-06T02:37:40.813Z,71.09
2023-04-06T02:42:48.904Z,70.17
2023-04-06T02:48:00.975Z,69.96
2023-04-06T02:53:10.232Z,70.25
2023-04-06T02:58:20.148Z,71.07
2023-04-06T03:03:32.810Z,70.68
2023-04-06T03:08:39.764Z,70.77
2023-04-06T03:13:47.902Z,71.32
2023-04-06T03:18:54.557Z,71.43
2023-04-06T03:24:01.419Z,71.93
2023-04-06T03:29:09.341Z,71.64
2023-04-06T03:34:16.085Z,71.86
2023-04-06T03:39:22.440Z,71.53
2023-04-06T03:44:31.192Z,71.87
2023-04-06T03:49:38.619Z,71.88
2023-04-06T03:54:49.283Z,72.28
2023-04-06T03:59:57.598Z,72.16
2023-04-06T04:05:07.253Z,72.80
2023-04-06T04:10:13.756Z,73.00
2023-04-06T04:15:22.542Z,73.56
2023-04-06T04:20:29.920Z,73.53
2023-04-06T04:25:36.179Z,74.56
2023-04-06T04:30:44.621Z,74.78
2023-04-06T04:35:52.746Z,74.90
2023-04-06T04:41:01.587Z,75.28
2023-04-06T04:46:10.219Z,75.66
2023-04-06T04:51:21.055Z,75.87
2023-04-06T04:56:49.557Z,75.82
2023-04-06T05:02:22.568Z,76.56
2023-04-06T05:07:41.339Z,76.37
2023-04-06T05:12:53.245Z,77.05
2023-04-06T05:18:01.685Z,76.41
2023-04-06T05:23:12.587Z,76.87
2023-04-06T05:28:19.890Z,76.32
2023-04-06T05:33:28.794Z,76.44
2023-04-06T05:38:43.348Z,77.15
2023-04-06T05:44:08.115Z,77.35
2023-04-06T05:49:16.699Z,77.06
2023-04-06T05:54:23.951Z,77.52
2023-04-06T05:59:34.620Z,77.75
2023-04-06T06:04:42.736Z,77.22
2023-04-06T06:09:49.659Z,75.84
2023-04-06T06:15:03.299Z,75.53
2023-04-06T06:20:16.490Z,75.18
2023-04-06T06:25:24.257Z,74.74
2023-04-06T06:30:31.401Z,73.25
2023-04-06T06:35:40.980Z,71.12
2023-04-06T06:40:49.381Z,68.25
2023-04-06T06:45:58.150Z,67.17
2023-04-06T06:51:06.511Z,67.26
2023-04-06T06:56:14.336Z,64.22
2023-04-06T07:01:21.675Z,64.45
2023-04-06T07:06:30.340Z,63.50
2023-04-06T07:11:37.006Z,61.40
2023-04-06T07:16:43.701Z,61.07
2023-04-06T07:21:51.991Z,61.19
2023-04-06T07:26:59.151Z,60.02
2023-04-06T07:32:08.735Z,60.00
2023-04-06T07:37:16.835Z,59.57
2023-04-06T07:42:23.450Z,59.55
2023-04-06T07:47:30.174Z,59.33
2023-04-06T07:52:39.903Z,60.00
2023-04-06T07:57:47.270Z,59.97
2023-04-06T08:02:53.761Z,58.90
2023-04-06T08:08:02.157Z,59.34
2023-04-06T08:13:09.700Z,58.98
2023-04-06T08:18:16.551Z,59.81
2023-04-06T08:23:24.781Z,58.40
2023-04-06T08:28:31.397Z,58.52
2023-04-06T08:33:40.447Z,58.02
2023-04-06T08:38:48.179Z,57.97
2023-04-06T08:44:00.786Z,58.38
2023-04-06T08:49:08.714Z,59.85
2023-04-06T08:54:17.144Z,59.41
2023-04-06T08:59:24.035Z,59.14
2023-04-06T09:04:31.335Z,59.68
2023-04-06T09:09:44.704Z,61.71
2023-04-06T09:14:51.063Z,65.35
2023-04-06T09:19:59.550Z,67.24
2023-04-06T09:25:09.294Z,67.32
2023-04-06T09:30:18.116Z,67.60
2023-04-06T09:35:25.604Z,67.25
2023-04-06T09:40:33.820Z,66.56
2023-04-06T09:45:40.763Z,68.55
2023-04-06T09:50:47.650Z,69.38
2023-04-06T09:55:58.492Z,68.75
2023-04-06T10:01:12.546Z,68.75
2023-04-06T10:06:26.722Z,69.57
2023-04-06T10:11:35.159Z,69.65
2023-04-06T10:16:41.725Z,69.24
2023-04-06T10:21:51.090Z,68.74
2023-04-06T10:27:04.643Z,71.56
2023-04-06T10:32:11.443Z,74.76
2023-04-06T10:37:20.405Z,76.31
2023-04-06T10:42:39.124Z,76.56
2023-04-06T10:47:45.603Z,75.57
2023-04-06T10:53:03.981Z,76.35
2023-04-06T10:58:11.990Z,77.04
2023-04-06T11:03:19.440Z,76.87
2023-04-06T11:08:30.390Z,77.47
2023-04-06T11:13:47.212Z,76.76
2023-04-06T11:18:56.862Z,77.62
2023-04-06T11:24:14.757Z,77.96
2023-04-06T11:29:26.144Z,76.84
2023-04-06T11:34:40.850Z,77.59
2023-04-06T11:39:52.048Z,78.87
2023-04-06T11:45:01.047Z,78.72
2023-04-06T11:50:11.919Z,78.68
2023-04-06T11:55:18.944Z,79.90
2023-04-06T12:00:27.001Z,79.62
2023-04-06T12:05:35.572Z,80.28
2023-04-06T12:10:41.926Z,80.90
2023-04-06T12:15:51.263Z,79.33
2023-04-06T12:20:58.100Z,80.79
2023-04-06T12:26:05.569Z,81.16
2023-04-06T12:31:18.465Z,80.36
2023-04-06T12:36:25.436Z,79.94
2023-04-06T12:41:35.914Z,80.53
2023-04-06T12:46:44.554Z,82.19
2023-04-06T12:51:51.530Z,81.47
2023-04-06T12:57:03.427Z,81.18
2023-04-06T13:02:29.783Z,80.46
2023-04-06T13:07:43.523Z,80.83
2023-04-06T13:12:57.058Z,80.21
2023-04-06T13:18:19.090Z,79.68
2023-04-06T13:23:39.874Z,79.25
2023-04-06T13:29:00.317Z,79.20
2023-04-06T13:34:20.712Z,80.17
2023-04-06T13:39:35.876Z,79.47
2023-04-06T13:44:53.683Z,79.54
2023-04-06T13:50:14.274Z,79.96
2023-04-06T13:55:31.765Z,79.47
2023-04-06T14:00:58.672Z,79.69
2023-04-06T14:06:30.992Z,79.10
2023-04-06T14:11:54.670Z,79.63
2023-04-06T14:17:13.360Z,80.03
2023-04-06T14:22:32.765Z,80.50
2023-04-06T14:28:03.248Z,79.80
2023-04-06T14:33:28.824Z,80.33
2023-04-06T14:38:53.173Z,79.47
2023-04-06T14:44:10.301Z,78.94
2023-04-06T14:49:26.086Z,80.22
2023-04-06T14:54:59.058Z,81.16
2023-04-06T15:00:20.641Z,82.64
2023-04-06T15:05:39.211Z,83.15
2023-04-06T15:11:05.503Z,83.71
2023-04-06T15:16:21.473Z,83.93
2023-04-06T15:21:38.957Z,83.67
2023-04-06T15:27:03.488Z,83.67
2023-04-06T15:32:32.146Z,84.02
2023-04-06T15:37:51.437Z,84.04
2023-04-06T15:43:17.106Z,84.13
2023-04-06T15:48:42.112Z,84.26
2023-04-06T15:53:56.771Z,84.82
2023-04-06T15:59:17.575Z,85.81
2023-04-06T16:04:35.651Z,86.42
2023-04-06T16:09:58.487Z,87.17
2023-04-06T16:15:24.022Z,87.41
2023-04-06T16:20:51.300Z,87.49
2023-04-06T16:26:20.069Z,88.00
2023-04-06T16:31:40.693Z,88.33
2023-04-06T16:36:57.611Z,88.42
2023-04-06T16:42:11.830Z,88.69
2023-04-06T16:47:34.649Z,88.84
2023-04-06T16:52:50.348Z,89.24
2023-04-06T16:58:09.598Z,89.71
2023-04-06T17:03:39.551Z,90.22
2023-04-06T17:08:59.334Z,89.65
2023-04-06T17:14:22.645Z,89.08
2023-04-06T17:19:46.352Z,89.06
2023-04-06T17:25:01.816Z,89.47
2023-04-06T17:30:18.726Z,89.07
2023-04-06T17:35:43.418Z,89.14
2023-04-06T17:40:59.481Z,88.89
2023-04-06T17:46:20.826Z,89.97
2023-04-06T17:51:47.689Z,89.70
2023-04-06T17:57:16.109Z,89.90
2023-04-06T18:02:38.589Z,90.22
2023-04-06T18:08:22.973Z,90.15
2023-04-06T18:13:44.979Z,90.66
2023-04-06T18:19:07.556Z,90.39
2023-04-06T18:24:41.276Z,90.63
2023-04-06T18:30:02.766Z,91.20
2023-04-06T18:35:17.473Z,91.13
2023-04-06T18:40:44.460Z,91.50
2023-04-06T18:46:11.761Z,91.84
2023-04-06T18:51:35.277Z,92.22
2023-04-06T18:56:54.136Z,92.52
2023-04-06T19:02:09.733Z,92.80
2023-04-06T19:07:28.986Z,92.63
2023-04-06T19:12:47.216Z,92.92
2023-04-06T19:18:06.242Z,93.58
2023-04-06T19:23:29.992Z,93.30
2023-04-06T19:28:55.666Z,94.08
2023-04-06T19:34:26.802Z,94.32
2023-04-06T19:39:56.324Z,94.46
2023-04-06T19:45:29.538Z,95.09
2023-04-06T19:51:01.954Z,95.07
2023-04-06T19:56:19.729Z,95.01
2023-04-06T20:01:48.424Z,95.07
2023-04-06T20:07:12.135Z,95.52
2023-04-06T20:12:36.243Z,95.78
2023-04-06T20:18:01.523Z,96.01
2023-04-06T20:23:23.773Z,96.37
2023-04-06T20:28:46.486Z,96.98
2023-04-06T20:34:08.870Z,97.15
2023-04-06T20:39:43.482Z,97.71
2023-04-06T20:45:07.026Z,97.51
2023-04-06T20:50:31.026Z,97.93
2023-04-06T20:55:50.366Z,98.00
2023-04-06T21:01:02.444Z,98.06
2023-04-06T21:06:22.273Z,98.18
2023-04-06T21:11:38.250Z,98.00
2023-04-06T21:16:52.106Z,98.19
2023-04-06T21:22:11.431Z,98.56
2023-04-06T21:27:23.723Z,98.30
2023-04-06T21:32:33.654Z,98.71
2023-04-06T21:37:44.409Z,98.81
2023-04-06T21:42:59.131Z,98.61
2023-04-06T21:48:08.932Z,98.35
2023-04-06T21:53:19.495Z,98.44
2023-04-06T21:58:28.127Z,98.55
2023-04-06T22:03:38.935Z,98.82
2023-04-06T22:08:52.911Z,98.66
2023-04-06T22:14:03.190Z,99.21
2023-04-06T22:19:11.558Z,99.16
2023-04-06T22:24:23.199Z,98.60
2023-04-06T22:29:30.491Z,98.77
2023-04-06T22:34:37.728Z,98.45
2023-04-06T22:39:46.950Z,99.00
2023-04-06T22:44:53.932Z,98.57
2023-04-06T22:50:00.706Z,98.66
2023-04-06T22:55:10.369Z,98.70
2023-04-06T23:00:17.502Z,98.61
2023-04-06T23:05:24.056Z,98.73
2023-04-06T23:10:32.346Z,98.67
2023-04-06T23:15:41.972Z,97.83
2023-04-06T23:20:48.831Z,98.49
2023-04-06T23:25:56.706Z,98.57
2023-04-06T23:31:03.496Z,98.08
2023-04-06T23:36:10.270Z,98.16
2023-04-06T23:41:18.334Z,98.34
2023-04-06T23:46:25.379Z,98.26
2023-04-06T23:51:32.219Z,98.73
2023-04-06T23:56:39.825Z,98.42
